Seal Rocks - Between Montague And Hinchinbrook Islands, Ak (46061) Wave Buoy

3:50am - Fri 9th Oct 2015 All times are AKDT. -8 hours from GMT.

  • Sig Wave height 7.5ft
  • Swell Direction
  • Peak Period 9s
  • Average Period 8s
  • Wind
    11mph, 13mph gusts
  • Sea Temp 51°f
  • Air Temp 50°f
  • Sea Pressure 990.4mb
  • Seal Rocks - Between Montague And Hinchinbrook Islands, Ak
  • Seal Rocks - Between Montague And Hinchinbrook Islands, Ak

More Historic Weather Station data

Upgrade to MSW Pro to gain access to the past 30 days of data for over 8000 Wavebouys and Weather Stations around the globe.

Join Pro

Comparision Forecast

View Surf forecast
Fri 10/09 3:50am 7.5ft 9s 8s 11 13 mph 990.4mb 51f 50f
2:50am 6ft 11s 8s 4 7 mph 990.7mb 51f 51f
1:50am 6ft 10s 7s 13 18 mph 990.9mb 51f 51f
12:50am 6ft 8s 7s 20 22 mph 991mb 51f 51f
Thu 10/08 11:50pm 5.5ft 9s 7s 20 22 mph 991mb 51f 50f
10:50pm 5.5ft 9s 7s 20 25 mph 990.7mb 51f 51f
9:50pm 7.5ft 8s 7s 18 22 mph 990.6mb 52f 51f
8:50pm 8ft 9s 7s 13 18 mph 990.8mb 52f 51f
7:50pm 9ft 9s 7s 13 16 mph 991.1mb 52f 51f
6:50pm 9ft 9s 7s 16 18 mph 991.3mb 52f 51f
5:50pm 8ft 9s 7s 20 27 mph 991.4mb 52f 51f
4:50pm 9ft 10s 7s 20 27 mph 991.6mb 52f 52f
3:50pm 8ft 8s 7s 20 25 mph 992.4mb 52f 51f
2:50pm 9ft 10s 7s 20 25 mph 992.6mb 52f 51f
1:50pm 8.5ft 10s 7s 22 31 mph 992.8mb 52f 52f
12:50pm 8ft 9s 7s 22 29 mph 993.4mb 52f 52f
11:50am 9ft 9s 7s 27 34 mph 993.6mb 52f 51f
10:50am 8.5ft 9s 6s 27 34 mph 994.1mb 52f 51f
9:50am 9ft 9s 6s 27 34 mph 994.6mb 52f 51f
8:50am 10ft 8s 6s 27 34 mph 994.6mb 52f 51f
7:50am 10ft 9s 7s 29 36 mph 994mb 52f 51f
6:50am 9.5ft 9s 6s 31 40 mph 993.5mb 52f 51f
5:50am 8.5ft 7s 6s 34 43 mph 993.7mb 52f 52f
4:50am 10ft 8s 6s 31 36 mph 994.3mb 51f 52f
3:50am 8ft 8s 6s 29 36 mph 995.5mb 51f 51f
2:50am 7.5ft 8s 6s 20 29 mph 997mb 52f 51f
1:50am 7ft 8s 6s 22 31 mph 997.9mb 52f 54f
12:50am 7ft 8s 6s 25 36 mph 998.5mb 52f 56f
Wed 10/07 11:50pm 6.5ft 8s 6s 18 27 mph 999.4mb 52f 56f
10:50pm 6ft 7s 6s 25 29 mph 1000.5mb 52f 56f
9:50pm 6.5ft 8s 6s 22 29 mph 1001.5mb 52f 55f
8:50pm 6.5ft 7s 6s 22 31 mph 1002mb 52f 55f
7:50pm 6ft 6s 5s 20 29 mph 1003mb 52f 54f
6:50pm 5.5ft 6s 5s 22 29 mph 1003.7mb 52f 52f
5:50pm 4.5ft 5s 5s 25 29 mph 1004.6mb 52f 50f
4:50pm 4ft 5s 5s 25 31 mph 1005.4mb 52f 51f
3:50pm 4ft 5s 5s 16 20 mph 1006.1mb 52f 50f
2:50pm 3.5ft 5s 5s 16 18 mph 1007.1mb 52f 49f
1:50pm 3.5ft 10s 5s 13 16 mph 1007.8mb 52f 48f
12:50pm 3.5ft 11s 5s 11 13 mph 1008.1mb 52f 47f
11:50am 3.5ft 9s 5s 16 20 mph 1008.4mb 52f 47f
10:50am 3.5ft 10s 5s 16 18 mph 1008.6mb 52f 47f
9:50am 3.5ft 11s 6s 11 13 mph 1009mb 52f 47f
8:50am 3.5ft 10s 6s 13 18 mph 1009mb 52f 47f
7:50am 3.5ft 10s 6s 7 9 mph 1009.1mb 52f 47f
6:50am 3.5ft 11s 6s 7 9 mph 1009.4mb 51f 48f
5:50am 3.5ft 10s 6s 4
1009.6mb 51f 48f
4:50am 3.5ft 11s 6s 7
1009.8mb 51f 48f
3:50am 4ft 11s 7s 4 7 mph 1010.3mb 51f 49f
2:50am 3.5ft 11s 7s 9 11 mph 1010.7mb 51f 49f
1:50am 3.5ft 11s 8s 7 9 mph 1010.8mb 52f 48f
12:50am 4ft 12s 7s 7 9 mph 1011mb 52f 48f
Tue 10/06 11:50pm 4.5ft 11s 7s 9
1010.9mb 52f 48f
10:50pm 4.5ft 11s 7s 7 9 mph 1011.1mb 52f 49f
9:50pm 4.5ft 11s 7s 7 9 mph 1011.1mb 52f 49f
8:50pm 4.5ft 11s 7s 7 11 mph 1011.4mb 52f 49f
7:50pm 4.5ft 11s 8s 9 11 mph 1011.4mb 51f 49f
6:50pm 4.5ft 11s 7s 9 11 mph 1011.6mb 51f 48f
5:50pm 3.5ft 12s 7s 11 13 mph 1011.8mb 51f 48f
4:50pm 3.5ft 12s 7s 9 11 mph 1012.2mb 51f 48f
3:50pm 3.5ft 11s 7s 11 13 mph 1012.6mb 51f 48f
2:50pm 3.5ft 11s 8s 13 16 mph 1012.8mb 51f 47f
1:50pm 3ft 12s 8s 11 13 mph 1013.2mb 51f 47f
12:50pm 3.5ft 12s 9s 11 13 mph 1013.6mb 51f 48f
11:50am 3.5ft 12s 8s 9 13 mph 1013.4mb 52f 47f
10:50am 3ft 11s 8s 7 11 mph 1013.4mb 51f 47f
9:50am 3.5ft 11s 9s 7 9 mph 1013.4mb 52f 47f
8:50am 3.5ft 11s 9s 7
1013.6mb 51f 48f
7:50am 3ft 11s 9s 4 7 mph 1013.6mb 51f 47f
6:50am 2.5ft 11s 8s 4 7 mph 1013.8mb 51f 47f
5:50am 2.5ft 11s 8s 4 7 mph 1014.1mb 51f 46f
4:50am 2.5ft 11s 9s 7 9 mph 1014.5mb 51f 46f
3:50am 2ft 11s 8s 7
1014.8mb 51f 46f
2:50am 2.5ft 12s 9s 7 9 mph 1015mb 51f 46f
1:50am 2.5ft 12s 9s 7
1015mb 51f 47f
12:50am 2ft 13s 9s 4 7 mph 1015.2mb 51f 47f
Mon 10/05 11:50pm 2ft 13s 9s 7
1015.2mb 51f 46f
10:50pm 1.6ft 13s 8s 9
1015.1mb 51f 47f
9:50pm 1.6ft 14s 7s 9 11 mph 1015.4mb 51f 47f
8:50pm 1.6ft 14s 7s 9 11 mph 1015.6mb 52f 47f
7:50pm 1.6ft 14s 6s 7 9 mph 1015.9mb 52f 47f
6:50pm 1.6ft 7s 6s 7 9 mph 1016.1mb 52f 47f
5:50pm 1.6ft 8s 6s 7 9 mph 1016.5mb 52f 47f
4:50pm 1.6ft 8s 7s 7 9 mph 1016.9mb 52f 47f
3:50pm 1.6ft 7s 6s 9
1017.4mb 51f 47f
2:50pm 2ft 8s 7s 7 9 mph 1017.9mb 51f 47f
1:50pm 1.6ft 8s 7s 9
1018.6mb 51f 47f